Catàleg de serveis del Meteocat
Campanya meteocatpedra

Dades de l'estació automàtica Baldomar

?
?
Resum diari 22:00 TU
Dades diàries de l'estació meteorològica
Temperatura mitjana 6.2 °C
Temperatura màxima 12.6 °C 13:03 TU
Temperatura mínima 1.3 °C 3:03 TU
Humitat relativa mitjana 89%
Precipitació acumulada 0.0 mm
Ratxa màxima del vent (2 m) 25.2 km/h - 207º 14:20 TU
Irradiació solar global 7.5 MJ/m2

El tram horari està expressat en Temps Universal (TU). Cal sumar una hora en horari d'hivern i dues en horari d'estiu per passar a l'hora oficial.

Baldomar

Metadades estació meteorol´gica
Municipi Artesa de Segre
Comarca Noguera
Altitud 366 m
Data alta 24.10.2006
Estat actual Operativa
Dades de període
Període
TU
TM
°C
TX
°C
TN
°C
HRM
%
PPT
mm
VVM (2 m)
km/h
DVM (2 m)
graus
VVX (2 m)
km/h
RS
W/m2
00:00 - 00:30 3.1 3.3 2.7 98 0.0 0.7 342 3.6 0
00:30 - 01:00 2.4 2.8 2.0 98 0.0 2.5 109 5.4 0
01:00 - 01:30 2.2 2.3 1.9 99 0.0 1.1 332 2.9 0
01:30 - 02:00 2.4 2.8 1.8 100 0.0 2.2 21 5.0 0
02:00 - 02:30 1.9 2.3 1.6 99 0.0 2.5 116 6.1 0
02:30 - 03:00 1.6 1.9 1.3 100 0.0 1.4 304 3.6 0
03:00 - 03:30 1.7 2.0 1.3 100 0.0 1.8 335 4.0 0
03:30 - 04:00 1.7 2.0 1.4 100 0.0 2.5 81 6.5 0
04:00 - 04:30 2.0 2.1 2.0 100 0.0 0.0 159 2.2 0
04:30 - 05:00 2.1 2.3 2.0 100 0.0 1.4 169 4.3 0
05:00 - 05:30 2.4 2.5 2.1 100 0.0 0.7 263 2.9 0
05:30 - 06:00 2.4 2.6 2.2 100 0.0 1.1 338 3.6 0
06:00 - 06:30 2.7 3.0 2.6 100 0.0 1.4 333 2.9 0
06:30 - 07:00 3.0 3.1 3.0 99 0.0 1.1 311 4.3 1
07:00 - 07:30 3.3 3.7 3.1 99 0.0 0.7 48 4.0 10
07:30 - 08:00 4.1 4.3 3.7 97 0.0 1.8 13 4.3 29
08:00 - 08:30 4.5 5.0 4.2 97 0.0 3.2 273 6.1 112
08:30 - 09:00 4.9 5.2 4.8 94 0.0 1.8 217 5.8 78
09:00 - 09:30 5.3 5.7 5.2 92 0.0 1.1 339 3.6 76
09:30 - 10:00 6.2 6.8 5.7 89 0.0 1.8 49 4.0 107
10:00 - 10:30 7.1 7.4 6.9 88 0.0 2.9 189 6.8 157
10:30 - 11:00 7.9 8.5 7.2 83 0.0 2.9 177 6.8 289
11:00 - 11:30 8.7 9.2 8.5 78 0.0 2.5 261 6.5 302
11:30 - 12:00 10.0 11.0 9.1 70 0.0 2.5 216 7.6 409
12:00 - 12:30 11.6 12.3 11.1 62 0.0 4.0 231 11.9 503
12:30 - 13:00 12.1 12.4 11.7 58 0.0 6.8 178 15.5 477
13:00 - 13:30 12.4 12.6 12.2 61 0.0 7.6 216 14.4 437
13:30 - 14:00 12.2 12.5 11.9 64 0.0 11.5 216 19.4 386
14:00 - 14:30 11.8 12.3 11.4 67 0.0 12.6 218 25.2 321
14:30 - 15:00 11.7 11.9 11.5 71 0.0 8.3 226 23.0 241
15:00 - 15:30 11.7 11.9 11.4 72 0.0 7.9 204 18.0 148
15:30 - 16:00 11.2 11.4 10.9 74 0.0 11.2 200 18.4 94
16:00 - 16:30 10.6 10.8 10.0 76 0.0 4.7 215 14.8 17
16:30 - 17:00 8.9 9.9 8.4 83 0.0 4.3 101 7.9 0
17:00 - 17:30 8.2 8.6 7.6 86 0.0 4.7 127 11.2 0
17:30 - 18:00 7.7 8.0 7.3 88 0.0 4.7 86 7.9 0
18:00 - 18:30 6.8 7.7 5.9 92 0.0 2.2 43 6.1 0
18:30 - 19:00 6.1 6.6 5.6 95 0.0 3.2 30 7.2 0
19:00 - 19:30 6.2 7.3 5.5 95 0.0 3.2 297 9.7 0
19:30 - 20:00 6.6 7.2 6.5 94 0.0 2.9 118 6.5 0
20:00 - 20:30 5.9 6.6 5.6 96 0.0 1.1 344 3.2 0
20:30 - 21:00 5.9 6.3 5.5 97 0.0 1.8 68 4.3 0
21:00 - 21:30 5.4 5.8 5.0 97 0.0 4.0 133 9.4 0
21:30 - 22:00 4.8 5.1 4.5 99 0.0 2.5 73 5.0 0
22:00 - 22:30 5.5 5.9 5.0 99 0.0 4.0 17 6.8 0

Les dades en taronja només han passat un control de qualitat automàtic. Resta pendent la seva validació definitiva.